Haskell Heights, South Carolina
Current Conditions -  °F | °C
As of 4:07 PM on Monday 22 Dec 2014 (Local Time) from KCUB Reporting Station
Light Rain Light Rain  
Wind Chill: 45°   Ceiling: 700
Heat Index: 45°   Visibility: 2.5mi
Dew Point: 42°   Wind: 3mph
Humidity: 90%   Direction: NA
Pressure: 30.01"   Gusts: NA
Location:  34.1179°N, 81.0612°W
Report Text: KCUB 222107Z AUTO VRB03KT 2 1/2SM -RA BR OVC007 07/06 A3001 RMK AO2 CIG 004V010 P0000 T00720056
Loading
Personal Weather Stations






























Interactive Weather Map New forecast layout! Learn more

10-Day Weather Forecast

Advertisements
Track Severe Weather on mobile